This is the latest recevied weather packets stored in our database for station/object K1ZK-13. If no packets are shown the sender has not sent any weather packets the latest 10 day(s).
| Time | Temp. | Humidity | Pressure | Rain* | Wind** | Luminosity | Snow |
|---|---|---|---|---|---|---|---|
| 1777640351 | 7.22° C | 65% | 1012.9 hPa | 0 mm | - | 348 W/m² | - |
| 1777640048 | 6.67° C | 65% | 1012.9 hPa | 0 mm | - | 333 W/m² | - |
| 1777639744 | 6.67° C | 64% | 1012.7 hPa | 0 mm | - | 321 W/m² | - |
| 1777639443 | 6.67° C | 66% | 1012.7 hPa | 0 mm | - | 308 W/m² | - |
| 1777639137 | 6.67° C | 67% | 1012.7 hPa | 0 mm | - | 303 W/m² | - |
| 1777637317 | 5° C | 74% | 1012.8 hPa | 0 mm | - | 115 W/m² | - |
| 1777637013 | 5° C | 74% | 1012.9 hPa | 0 mm | - | 115 W/m² | - |
| 1777635493 | 5° C | 77% | 1012.9 hPa | 0 mm | - | 79 W/m² | - |
| 1777635190 | 5° C | 77% | 1012.9 hPa | 0 mm | - | 79 W/m² | - |
| 1777634887 | 5° C | 77% | 1012.9 hPa | 0 mm | - | 79 W/m² | - |
| 1777633373 | 4.44° C | 84% | 1012.6 hPa | 0 mm | - | 42 W/m² | - |
| 1777633069 | 4.44° C | 84% | 1012.6 hPa | 0 mm | - | 42 W/m² | - |
| 1777632766 | 4.44° C | 84% | 1012.4 hPa | 0 mm | - | 41 W/m² | - |
| 1777632461 | 4.44° C | 84% | 1012.2 hPa | 0 mm | - | 40 W/m² | - |
| 1777632159 | 3.89° C | 85% | 1012.4 hPa | 0 mm | - | 34 W/m² | - |
| 1777631856 | 3.89° C | 85% | 1012.4 hPa | 0 mm | - | 34 W/m² | - |
| 1777631555 | 3.89° C | 85% | 1012.3 hPa | 0 mm | - | 28 W/m² | - |
| 1777631251 | 3.89° C | 86% | 1012.3 hPa | 0 mm | - | 22 W/m² | - |
| 1777630949 | 3.89° C | 86% | 1012.6 hPa | 0 mm | - | 22 W/m² | - |
| 1777630644 | 3.89° C | 86% | 1012.2 hPa | 0 mm | - | 18 W/m² | - |
| 1777630342 | 3.89° C | 86% | 1012.1 hPa | 0 mm | - | 14 W/m² | - |
| 1777630039 | 3.89° C | 86% | 1011.9 hPa | 0 mm | - | 12 W/m² | - |
| 1777629736 | 3.89° C | 86% | 1011.8 hPa | 0 mm | - | 8 W/m² | - |
| 1777629433 | 3.89° C | 87% | 1011.7 hPa | 0 mm | - | 6 W/m² | - |
| 1777629129 | 3.89° C | 86% | 1011.6 hPa | 0 mm | - | 4 W/m² | - |
* Rain latest hour (hover to see other rain measurements)
** Current wind speed in m/s (hover to see current wind gust speed)